Time;durP1;ratioP1;P1;durP2;ratioP2;P2;SDS_P1;SDS_P2;PMS_P1;PMS_P2;Temp;Humidity;BMP_temperature;BMP_pressure;BME280_temperature;BME280_humidity;BME280_pressure;Samples;Min_cycle;Max_cycle;Signal;HPM_P1;HPM_P2
2021/09/07 00:01:52;;;;;;;12.20;6.85;;;;;;;;;;5099140;28;20464;-81
2021/09/07 00:04:19;;;;;;;11.23;7.00;;;;;;;;;;5116727;28;20044;-81
2021/09/07 00:06:45;;;;;;;11.65;7.53;;;;;;;;;;5100063;28;20044;-81
2021/09/07 00:09:12;;;;;;;9.50;6.03;;;;;;;;;;5100113;28;20049;-81
2021/09/07 00:11:39;;;;;;;11.48;6.18;;;;;;;;;;5100517;28;20040;-81
2021/09/07 00:14:05;;;;;;;10.07;6.28;;;;;;;;;;5099903;28;20047;-82
2021/09/07 00:16:33;;;;;;;9.52;5.80;;;;;;;;;;5100758;28;20046;-81
2021/09/07 00:18:59;;;;;;;9.77;6.05;;;;;;;;;;5101460;28;20036;-82
2021/09/07 00:21:26;;;;;;;9.93;6.63;;;;;;;;;;5098875;28;20043;-81
2021/09/07 00:23:52;;;;;;;12.20;7.63;;;;;;;;;;5081234;28;20414;-81
2021/09/07 00:26:19;;;;;;;9.75;6.40;;;;;;;;;;5099553;28;20036;-81
2021/09/07 00:28:45;;;;;;;10.18;6.47;;;;;;;;;;5098821;28;20051;-81
2021/09/07 00:31:12;;;;;;;9.95;6.65;;;;;;;;;;5099752;28;20044;-81
2021/09/07 00:33:40;;;;;;;10.70;6.50;;;;;;;;;;5098908;28;20036;-82
2021/09/07 00:36:06;;;;;;;9.82;6.82;;;;;;;;;;5100005;28;20040;-82
2021/09/07 00:38:33;;;;;;;13.18;6.25;;;;;;;;;;5099639;28;20044;-82
2021/09/07 00:40:59;;;;;;;11.77;7.38;;;;;;;;;;5100381;28;20069;-81
2021/09/07 00:43:26;;;;;;;9.25;5.82;;;;;;;;;;5099656;28;20047;-82
2021/09/07 00:45:52;;;;;;;10.05;5.88;;;;;;;;;;5099221;28;20040;-82
2021/09/07 00:48:19;;;;;;;12.63;7.30;;;;;;;;;;5116565;28;20040;-82
2021/09/07 00:50:47;;;;;;;10.30;6.47;;;;;;;;;;5081274;28;20412;-81
2021/09/07 00:53:15;;;;;;;11.48;6.05;;;;;;;;;;5100284;28;20043;-82
2021/09/07 00:55:44;;;;;;;10.55;6.47;;;;;;;;;;5100000;28;20048;-81
2021/09/07 00:58:12;;;;;;;10.23;6.55;;;;;;;;;;5115256;28;20042;-81
2021/09/07 01:00:38;;;;;;;11.35;6.97;;;;;;;;;;5099790;28;20048;-81
2021/09/07 01:03:05;;;;;;;11.80;6.97;;;;;;;;;;5081449;28;20106;-81
2021/09/07 01:05:31;;;;;;;11.05;7.13;;;;;;;;;;5098976;28;20040;-81
2021/09/07 01:07:59;;;;;;;9.27;6.15;;;;;;;;;;5099298;28;20052;-81
2021/09/07 01:10:26;;;;;;;11.43;6.35;;;;;;;;;;5099886;28;20070;-81
2021/09/07 01:12:52;;;;;;;13.82;7.15;;;;;;;;;;5099338;28;20388;-81
2021/09/07 01:15:19;;;;;;;11.52;6.72;;;;;;;;;;5080671;28;20373;-80
2021/09/07 01:17:45;;;;;;;11.50;6.90;;;;;;;;;;5099611;28;20040;-81
2021/09/07 01:20:13;;;;;;;10.35;6.28;;;;;;;;;;5099201;28;20044;-81
2021/09/07 01:22:39;;;;;;;10.43;6.22;;;;;;;;;;5099444;28;20044;-82
2021/09/07 01:25:08;;;;;;;11.13;6.68;;;;;;;;;;5099945;28;20066;-81
2021/09/07 01:27:34;;;;;;;14.68;7.20;;;;;;;;;;5098792;28;20044;-81
2021/09/07 01:30:01;;;;;;;10.70;6.32;;;;;;;;;;5081237;28;20069;-80
2021/09/07 01:32:27;;;;;;;11.43;6.68;;;;;;;;;;5099618;28;20040;-81
2021/09/07 01:34:54;;;;;;;10.18;6.18;;;;;;;;;;5101634;28;20051;-80
2021/09/07 01:37:20;;;;;;;10.27;6.43;;;;;;;;;;5103799;28;20047;-81
2021/09/07 01:39:47;;;;;;;10.88;6.35;;;;;;;;;;5103476;28;20047;-81
2021/09/07 01:42:15;;;;;;;10.15;5.78;;;;;;;;;;5102694;28;20132;-80
2021/09/07 01:44:44;;;;;;;11.60;6.38;;;;;;;;;;5102359;28;20092;-80
2021/09/07 01:47:11;;;;;;;10.18;6.47;;;;;;;;;;5103001;28;20043;-80
2021/09/07 01:49:38;;;;;;;10.13;6.07;;;;;;;;;;5084537;28;20085;-83
2021/09/07 01:52:12;;;;;;;10.65;6.18;;;;;;;;;;5103824;28;20036;-81
2021/09/07 01:54:43;;;;;;;10.85;6.95;;;;;;;;;;5102784;28;20093;-81
2021/09/07 01:57:10;;;;;;;11.50;6.57;;;;;;;;;;5103285;28;20439;-81
2021/09/07 01:59:38;;;;;;;13.23;6.88;;;;;;;;;;5084214;28;20101;-81
2021/09/07 02:02:05;;;;;;;10.73;6.47;;;;;;;;;;5085325;28;20051;-81
2021/09/07 02:04:32;;;;;;;11.68;6.32;;;;;;;;;;5068241;28;20113;-81
2021/09/07 02:06:58;;;;;;;9.90;6.28;;;;;;;;;;5103130;28;20044;-82
2021/09/07 02:09:26;;;;;;;9.07;6.40;;;;;;;;;;5103236;28;20044;-81
2021/09/07 02:11:53;;;;;;;9.98;5.47;;;;;;;;;;5103888;28;20072;-81
2021/09/07 02:14:19;;;;;;;10.07;6.40;;;;;;;;;;5085523;28;20044;-81
2021/09/07 02:16:47;;;;;;;9.75;6.32;;;;;;;;;;5102865;28;20036;-81
2021/09/07 02:19:13;;;;;;;10.07;6.65;;;;;;;;;;5103798;28;20093;-81
2021/09/07 02:21:40;;;;;;;10.90;6.45;;;;;;;;;;5085473;28;20079;-81
2021/09/07 02:24:07;;;;;;;11.07;6.78;;;;;;;;;;5104139;28;20036;-81
2021/09/07 02:26:33;;;;;;;12.05;6.30;;;;;;;;;;5086481;28;20036;-82
2021/09/07 02:29:00;;;;;;;10.27;6.28;;;;;;;;;;5102045;28;20445;-81
2021/09/07 02:31:26;;;;;;;9.77;6.03;;;;;;;;;;5102613;28;20040;-81
2021/09/07 02:33:54;;;;;;;11.40;6.90;;;;;;;;;;5102019;28;20044;-81
2021/09/07 02:36:23;;;;;;;12.38;6.95;;;;;;;;;;5084091;28;20046;-80
2021/09/07 02:38:50;;;;;;;11.38;6.55;;;;;;;;;;5117857;28;20039;-81
2021/09/07 02:41:17;;;;;;;12.00;6.03;;;;;;;;;;5101806;28;20050;-81
2021/09/07 02:43:43;;;;;;;8.98;5.82;;;;;;;;;;5103089;28;20040;-81
2021/09/07 02:46:09;;;;;;;10.65;6.40;;;;;;;;;;5101873;28;20040;-81
2021/09/07 02:48:36;;;;;;;12.35;6.40;;;;;;;;;;5102373;28;20051;-82
2021/09/07 02:51:04;;;;;;;9.57;6.40;;;;;;;;;;5102903;28;20123;-81
2021/09/07 02:53:30;;;;;;;12.07;6.88;;;;;;;;;;5084563;28;20040;-81
2021/09/07 02:55:57;;;;;;;8.93;6.28;;;;;;;;;;5102062;28;20051;-81
2021/09/07 02:58:23;;;;;;;10.98;6.30;;;;;;;;;;5101841;28;20491;-81
2021/09/07 03:00:50;;;;;;;9.98;6.25;;;;;;;;;;5102262;28;20457;-80
2021/09/07 03:03:16;;;;;;;17.15;6.35;;;;;;;;;;5103357;28;20040;-83
2021/09/07 03:05:43;;;;;;;11.55;6.43;;;;;;;;;;5102207;28;20036;-81
2021/09/07 03:08:11;;;;;;;10.30;6.65;;;;;;;;;;5117423;28;20055;-81
2021/09/07 03:10:38;;;;;;;10.02;6.00;;;;;;;;;;5101506;28;20044;-81
2021/09/07 03:13:04;;;;;;;8.80;6.25;;;;;;;;;;5101967;28;20040;-81
2021/09/07 03:15:31;;;;;;;11.20;6.45;;;;;;;;;;5101612;28;20040;-81
2021/09/07 03:17:57;;;;;;;9.88;6.22;;;;;;;;;;5102145;28;20043;-81
2021/09/07 03:20:24;;;;;;;11.07;6.13;;;;;;;;;;5101212;28;20047;-81
2021/09/07 03:22:50;;;;;;;10.98;6.03;;;;;;;;;;5099504;28;20442;-81
2021/09/07 03:25:18;;;;;;;9.18;6.38;;;;;;;;;;5116975;28;20040;-82
2021/09/07 03:27:45;;;;;;;9.27;6.32;;;;;;;;;;5101486;28;20047;-81
2021/09/07 03:30:12;;;;;;;12.00;6.78;;;;;;;;;;5101475;28;20047;-82
2021/09/07 03:32:39;;;;;;;12.43;7.28;;;;;;;;;;5101961;28;20475;-82
2021/09/07 03:35:07;;;;;;;11.18;6.68;;;;;;;;;;5102165;28;20079;-81
2021/09/07 03:37:34;;;;;;;9.75;6.22;;;;;;;;;;5101424;28;20040;-81
2021/09/07 03:40:00;;;;;;;12.15;6.35;;;;;;;;;;5100693;28;20040;-81
2021/09/07 03:42:28;;;;;;;10.77;6.20;;;;;;;;;;5099435;28;20480;-82
2021/09/07 03:44:55;;;;;;;10.02;6.15;;;;;;;;;;5117040;28;20055;-82
2021/09/07 03:47:21;;;;;;;10.95;7.05;;;;;;;;;;5101963;28;20039;-82
2021/09/07 03:49:48;;;;;;;10.10;6.15;;;;;;;;;;5101400;28;20036;-82
2021/09/07 03:52:14;;;;;;;12.27;7.55;;;;;;;;;;5101859;28;20040;-83
2021/09/07 03:54:41;;;;;;;10.38;6.95;;;;;;;;;;5103227;28;20051;-81
2021/09/07 03:57:07;;;;;;;10.85;5.95;;;;;;;;;;5082959;28;20044;-82
2021/09/07 03:59:35;;;;;;;9.15;6.03;;;;;;;;;;5083396;28;20036;-82
2021/09/07 04:02:02;;;;;;;11.50;6.18;;;;;;;;;;5100576;28;20507;-82
2021/09/07 04:04:29;;;;;;;9.45;6.18;;;;;;;;;;5100857;28;20047;-81
2021/09/07 04:06:56;;;;;;;12.85;7.22;;;;;;;;;;5100921;28;20036;-82
2021/09/07 04:09:23;;;;;;;10.75;6.18;;;;;;;;;;5100112;28;20140;-82
2021/09/07 04:11:50;;;;;;;10.68;6.00;;;;;;;;;;5115404;28;20048;-82
2021/09/07 04:14:17;;;;;;;9.40;6.10;;;;;;;;;;5116403;28;20036;-83
2021/09/07 04:16:45;;;;;;;12.63;8.05;;;;;;;;;;5083016;28;20044;-83
2021/09/07 04:19:12;;;;;;;11.95;7.55;;;;;;;;;;5082224;28;20049;-82
2021/09/07 04:21:38;;;;;;;11.70;7.03;;;;;;;;;;5101254;28;20499;-82
2021/09/07 04:24:05;;;;;;;11.63;7.05;;;;;;;;;;5100825;28;20044;-81
2021/09/07 04:26:32;;;;;;;9.60;6.03;;;;;;;;;;5101163;28;20085;-82
2021/09/07 04:28:59;;;;;;;11.95;6.57;;;;;;;;;;5116844;28;20049;-82
2021/09/07 04:31:26;;;;;;;10.88;6.47;;;;;;;;;;5066144;28;20044;-83
2021/09/07 04:33:53;;;;;;;10.10;5.93;;;;;;;;;;5082258;28;20040;-81
2021/09/07 04:36:20;;;;;;;13.00;6.95;;;;;;;;;;5099340;28;20051;-82
2021/09/07 04:38:46;;;;;;;11.32;6.70;;;;;;;;;;5081475;28;20083;-82
2021/09/07 04:41:14;;;;;;;12.52;6.63;;;;;;;;;;5099657;28;20047;-81
2021/09/07 04:43:40;;;;;;;11.98;7.20;;;;;;;;;;5098527;28;20058;-81
2021/09/07 04:46:07;;;;;;;8.48;5.82;;;;;;;;;;5080740;28;20485;-81
2021/09/07 04:48:36;;;;;;;10.27;6.38;;;;;;;;;;5114753;28;20444;-81
2021/09/07 04:51:04;;;;;;;13.25;7.65;;;;;;;;;;5099292;28;20070;-81
2021/09/07 04:53:30;;;;;;;12.30;6.53;;;;;;;;;;5100304;28;20044;-81
2021/09/07 04:56:00;;;;;;;10.93;6.72;;;;;;;;;;5099434;28;20047;-81
2021/09/07 04:58:27;;;;;;;11.90;6.85;;;;;;;;;;5115720;28;20040;-81
2021/09/07 05:00:53;;;;;;;12.70;6.85;;;;;;;;;;5099725;28;20456;-81
2021/09/07 05:03:20;;;;;;;10.95;6.45;;;;;;;;;;5099823;28;20044;-82
2021/09/07 05:05:46;;;;;;;12.85;6.40;;;;;;;;;;5100353;28;20044;-81
2021/09/07 05:08:14;;;;;;;11.95;6.65;;;;;;;;;;5099801;28;20048;-81
2021/09/07 05:10:40;;;;;;;12.50;6.85;;;;;;;;;;5099837;28;20040;-81
2021/09/07 05:13:07;;;;;;;9.82;6.10;;;;;;;;;;5100127;28;20036;-81
2021/09/07 05:15:39;;;;;;;12.00;6.80;;;;;;;;;;5099572;28;20036;-82
2021/09/07 05:18:06;;;;;;;11.15;6.68;;;;;;;;;;5081834;28;20059;-82
2021/09/07 05:20:36;;;;;;;11.48;6.82;;;;;;;;;;5081430;28;20047;-82
2021/09/07 05:23:02;;;;;;;11.30;7.35;;;;;;;;;;5100231;28;20377;-81
2021/09/07 05:25:30;;;;;;;13.65;7.55;;;;;;;;;;5099717;28;20036;-82
2021/09/07 05:27:57;;;;;;;11.38;7.22;;;;;;;;;;5099662;28;20040;-81
2021/09/07 05:30:24;;;;;;;11.77;6.45;;;;;;;;;;5115612;28;20048;-81
2021/09/07 05:32:50;;;;;;;13.40;7.03;;;;;;;;;;5099154;28;20098;-81
2021/09/07 05:35:17;;;;;;;10.38;6.47;;;;;;;;;;5098748;28;20040;-81
2021/09/07 05:37:44;;;;;;;11.70;7.07;;;;;;;;;;5101170;28;20035;-81
2021/09/07 05:40:12;;;;;;;9.27;6.30;;;;;;;;;;5083759;28;20109;-81
2021/09/07 05:42:42;;;;;;;10.77;6.68;;;;;;;;;;5103693;28;20043;-82
2021/09/07 05:45:09;;;;;;;10.98;5.95;;;;;;;;;;5107382;28;20047;-81
2021/09/07 05:47:36;;;;;;;11.73;6.65;;;;;;;;;;5104761;28;20048;-83
2021/09/07 05:50:03;;;;;;;11.50;6.72;;;;;;;;;;5099402;28;20043;-81
2021/09/07 05:52:30;;;;;;;17.38;8.27;;;;;;;;;;5098526;28;20491;-82
2021/09/07 05:54:57;;;;;;;13.15;7.70;;;;;;;;;;5098200;28;20476;-82
2021/09/07 05:57:23;;;;;;;11.23;6.50;;;;;;;;;;5098638;28;20048;-82
2021/09/07 05:59:54;;;;;;;16.85;10.55;;;;;;;;;;5098000;28;20040;-82
2021/09/07 06:02:21;;;;;;;12.10;7.88;;;;;;;;;;5098579;28;20485;-82
2021/09/07 06:04:47;;;;;;;11.40;6.70;;;;;;;;;;5098441;28;20040;-82
2021/09/07 06:07:14;;;;;;;12.27;7.43;;;;;;;;;;5097505;28;20438;-82
2021/09/07 06:09:41;;;;;;;8.68;6.85;;;;;;;;;;5081063;28;20044;-82
2021/09/07 06:12:08;;;;;;;11.90;7.22;;;;;;;;;;5081057;28;20040;-82
2021/09/07 06:14:34;;;;;;;10.82;6.97;;;;;;;;;;5099570;28;20047;-82
2021/09/07 06:17:03;;;;;;;10.73;6.82;;;;;;;;;;5097961;28;20430;-82
2021/09/07 06:19:29;;;;;;;11.43;7.15;;;;;;;;;;5098891;28;20051;-82
2021/09/07 06:21:56;;;;;;;9.88;6.88;;;;;;;;;;5101163;28;20051;-82
2021/09/07 06:24:23;;;;;;;11.85;8.05;;;;;;;;;;5102342;28;20521;-82
2021/09/07 06:26:49;;;;;;;10.10;7.15;;;;;;;;;;5103208;28;20052;-83
2021/09/07 06:29:16;;;;;;;12.90;7.38;;;;;;;;;;5104341;28;20070;-82
2021/09/07 06:31:42;;;;;;;10.40;7.07;;;;;;;;;;5120720;28;20044;-83
2021/09/07 06:34:10;;;;;;;11.65;8.10;;;;;;;;;;5105091;28;20043;-82
2021/09/07 06:36:37;;;;;;;11.38;7.38;;;;;;;;;;5104895;28;20118;-82
2021/09/07 06:39:03;;;;;;;8.77;6.25;;;;;;;;;;5104770;28;20043;-83
2021/09/07 06:41:30;;;;;;;13.43;7.53;;;;;;;;;;5104766;28;20504;-82
2021/09/07 06:43:57;;;;;;;11.95;7.85;;;;;;;;;;5104599;28;20040;-82
2021/09/07 06:46:24;;;;;;;12.35;7.32;;;;;;;;;;5102552;28;20044;-83
2021/09/07 06:48:50;;;;;;;11.90;7.22;;;;;;;;;;5084211;28;20047;-82
2021/09/07 06:51:18;;;;;;;10.43;7.03;;;;;;;;;;5101325;28;20044;-82
2021/09/07 06:53:45;;;;;;;10.35;6.90;;;;;;;;;;5116901;28;20040;-82
2021/09/07 06:56:11;;;;;;;10.32;7.03;;;;;;;;;;5083395;28;20040;-82
2021/09/07 06:58:38;;;;;;;11.75;7.57;;;;;;;;;;5101753;28;20036;-82
2021/09/07 07:01:05;;;;;;;11.90;7.43;;;;;;;;;;5083170;28;20040;-82
2021/09/07 07:03:32;;;;;;;11.23;7.30;;;;;;;;;;5117251;28;20047;-83
2021/09/07 07:05:58;;;;;;;9.75;7.28;;;;;;;;;;5083825;28;20119;-83
2021/09/07 07:08:26;;;;;;;11.25;7.70;;;;;;;;;;5101661;28;20051;-83
2021/09/07 07:10:53;;;;;;;11.98;7.53;;;;;;;;;;5101098;28;20056;-82
2021/09/07 07:13:19;;;;;;;10.77;7.68;;;;;;;;;;5101498;28;20349;-82
2021/09/07 07:15:46;;;;;;;11.95;7.80;;;;;;;;;;5081498;28;20062;-83
2021/09/07 07:18:12;;;;;;;12.70;8.40;;;;;;;;;;5082207;28;20499;-82
2021/09/07 07:20:39;;;;;;;12.35;7.75;;;;;;;;;;5100434;28;20477;-80
2021/09/07 07:23:06;;;;;;;11.55;7.97;;;;;;;;;;5082868;28;20040;-83
2021/09/07 07:25:34;;;;;;;11.18;7.60;;;;;;;;;;5100180;28;20040;-83
2021/09/07 07:28:00;;;;;;;15.15;7.90;;;;;;;;;;5099526;28;20484;-83
2021/09/07 07:30:27;;;;;;;12.50;7.82;;;;;;;;;;5099888;28;20048;-83
2021/09/07 07:32:54;;;;;;;14.43;8.00;;;;;;;;;;5081502;28;20040;-83
2021/09/07 07:35:21;;;;;;;12.38;7.75;;;;;;;;;;5099292;28;20097;-83
2021/09/07 07:37:47;;;;;;;13.93;8.93;;;;;;;;;;5099492;28;20040;-83
2021/09/07 07:40:14;;;;;;;12.57;8.77;;;;;;;;;;5099970;28;20044;-81
2021/09/07 07:42:42;;;;;;;12.55;8.88;;;;;;;;;;5099596;28;20063;-81
2021/09/07 07:45:10;;;;;;;13.52;8.13;;;;;;;;;;5100269;28;20051;-81
2021/09/07 07:47:36;;;;;;;14.00;8.45;;;;;;;;;;5081697;28;20377;-81
2021/09/07 07:50:03;;;;;;;12.93;8.85;;;;;;;;;;5115406;28;20122;-81
2021/09/07 07:52:30;;;;;;;13.95;9.63;;;;;;;;;;5081657;28;20044;-82
2021/09/07 07:54:56;;;;;;;13.20;8.98;;;;;;;;;;5099030;28;20040;-82
2021/09/07 07:57:23;;;;;;;13.65;8.80;;;;;;;;;;5080785;28;20079;-83
2021/09/07 07:59:51;;;;;;;14.05;10.10;;;;;;;;;;5115213;28;20044;-82
2021/09/07 08:02:17;;;;;;;16.10;10.32;;;;;;;;;;5099609;28;20048;-82
2021/09/07 08:04:44;;;;;;;12.25;9.35;;;;;;;;;;5099752;28;20050;-82
2021/09/07 08:07:10;;;;;;;11.40;9.00;;;;;;;;;;5098132;28;20051;-81
2021/09/07 08:09:37;;;;;;;15.75;9.27;;;;;;;;;;5099486;28;20040;-82
2021/09/07 08:12:04;;;;;;;12.65;9.07;;;;;;;;;;5081749;28;20040;-82
2021/09/07 08:14:30;;;;;;;12.45;9.30;;;;;;;;;;5099095;28;20036;-82
2021/09/07 08:16:58;;;;;;;10.65;8.18;;;;;;;;;;5099410;28;20044;-82
2021/09/07 08:19:25;;;;;;;14.02;8.95;;;;;;;;;;5081875;28;20051;-82
2021/09/07 08:21:51;;;;;;;12.50;8.95;;;;;;;;;;5114894;28;20044;-82
2021/09/07 08:24:18;;;;;;;12.55;9.73;;;;;;;;;;5098143;28;20061;-82
2021/09/07 08:26:45;;;;;;;13.32;9.65;;;;;;;;;;5114179;28;20055;-82
2021/09/07 08:29:11;;;;;;;12.68;8.98;;;;;;;;;;5098731;28;20044;-82
2021/09/07 08:31:38;;;;;;;13.10;9.75;;;;;;;;;;5115379;28;20050;-82
2021/09/07 08:34:06;;;;;;;15.07;9.98;;;;;;;;;;5099195;28;20055;-82
2021/09/07 08:36:32;;;;;;;14.30;10.52;;;;;;;;;;5100740;28;20036;-83
2021/09/07 08:38:59;;;;;;;16.05;10.77;;;;;;;;;;5083391;28;20040;-82
2021/09/07 08:41:25;;;;;;;12.93;10.10;;;;;;;;;;5082204;28;20047;-82
2021/09/07 08:43:53;;;;;;;14.25;9.77;;;;;;;;;;5064329;28;20040;-83
2021/09/07 08:46:20;;;;;;;14.50;10.32;;;;;;;;;;5099407;28;20055;-82
2021/09/07 08:48:47;;;;;;;13.93;10.80;;;;;;;;;;5099524;28;20081;-83
2021/09/07 08:51:17;;;;;;;15.05;10.25;;;;;;;;;;5099033;28;20040;-82
2021/09/07 08:53:44;;;;;;;17.02;10.93;;;;;;;;;;5099238;28;20036;-82
2021/09/07 08:56:11;;;;;;;14.07;10.23;;;;;;;;;;5099031;28;20043;-83
2021/09/07 08:58:38;;;;;;;15.30;10.85;;;;;;;;;;5098430;28;20048;-83
2021/09/07 09:01:12;;;;;;;12.55;9.32;;;;;;;;;;5098723;28;20040;-83
2021/09/07 09:03:40;;;;;;;12.07;9.00;;;;;;;;;;5099200;28;20052;-83
2021/09/07 09:06:07;;;;;;;12.70;9.18;;;;;;;;;;5099933;28;20043;-83
2021/09/07 09:08:35;;;;;;;14.65;8.77;;;;;;;;;;5099332;28;20044;-83
2021/09/07 09:11:05;;;;;;;15.10;9.18;;;;;;;;;;5099241;28;20131;-83
2021/09/07 09:13:41;;;;;;;10.90;8.05;;;;;;;;;;5100335;28;20047;-84
2021/09/07 09:16:08;;;;;;;11.43;8.23;;;;;;;;;;5099335;28;20040;-82
2021/09/07 09:18:35;;;;;;;10.98;8.95;;;;;;;;;;5114862;28;20052;-83
2021/09/07 09:21:27;;;;;;;10.63;7.95;;;;;;;;;;5099091;28;20044;-83
2021/09/07 09:24:13;;;;;;;12.45;9.00;;;;;;;;;;5116147;28;20040;-82
2021/09/07 09:26:55;;;;;;;10.93;8.35;;;;;;;;;;5100252;28;20118;-84
2021/09/07 09:29:23;;;;;;;9.80;7.60;;;;;;;;;;5100602;28;20043;-84
2021/09/07 09:31:59;;;;;;;8.80;7.25;;;;;;;;;;5117879;28;20389;-83
2021/09/07 09:34:26;;;;;;;9.27;6.97;;;;;;;;;;5103547;28;20040;-84
2021/09/07 09:37:00;;;;;;;8.43;6.70;;;;;;;;;;5103631;28;20040;-84
2021/09/07 09:39:46;;;;;;;12.75;6.38;;;;;;;;;;5106487;28;20044;-83
2021/09/07 09:42:18;;;;;;;11.25;6.88;;;;;;;;;;5105710;28;20124;-83
2021/09/07 09:44:45;;;;;;;9.35;6.88;;;;;;;;;;5106444;28;20040;-85
2021/09/07 09:47:12;;;;;;;10.10;6.05;;;;;;;;;;5100432;28;20062;-85
2021/09/07 09:49:39;;;;;;;8.45;5.93;;;;;;;;;;5100521;28;20040;-85
2021/09/07 09:52:08;;;;;;;12.60;6.47;;;;;;;;;;5099620;28;20044;-83
2021/09/07 09:54:40;;;;;;;9.40;7.18;;;;;;;;;;5100610;28;20530;-83
2021/09/07 09:57:08;;;;;;;9.57;6.70;;;;;;;;;;5104323;28;20109;-84
2021/09/07 09:59:35;;;;;;;10.60;6.80;;;;;;;;;;5103504;28;20044;-85
2021/09/07 10:02:04;;;;;;;9.07;7.10;;;;;;;;;;5103168;28;20147;-85
2021/09/07 10:04:31;;;;;;;8.15;6.28;;;;;;;;;;5086066;28;20052;-84
2021/09/07 10:06:58;;;;;;;9.43;6.10;;;;;;;;;;5103926;28;20051;-85
2021/09/07 10:09:26;;;;;;;8.80;5.82;;;;;;;;;;5103290;28;20051;-84
2021/09/07 10:12:00;;;;;;;8.68;6.55;;;;;;;;;;5104216;28;20040;-84
2021/09/07 10:14:32;;;;;;;9.18;5.95;;;;;;;;;;5104233;28;20040;-84
2021/09/07 10:17:22;;;;;;;9.15;6.03;;;;;;;;;;5103221;28;20072;-84
2021/09/07 10:19:58;;;;;;;7.80;5.75;;;;;;;;;;5103098;28;20046;-84
2021/09/07 10:26:03;;;;;;;9.77;6.75;;;;;;;;;;5102944;28;20051;-83
2021/09/07 10:28:36;;;;;;;8.88;5.97;;;;;;;;;;5055547;28;20046;-82
2021/09/07 10:31:23;;;;;;;7.85;6.40;;;;;;;;;;5103785;28;20040;-82
2021/09/07 10:37:00;;;;;;;9.02;6.75;;;;;;;;;;5101719;28;20153;-84
2021/09/07 10:39:32;;;;;;;8.60;6.15;;;;;;;;;;5103122;28;20040;-83
2021/09/07 10:42:02;;;;;;;10.13;6.97;;;;;;;;;;5084715;28;20554;-83
2021/09/07 10:44:32;;;;;;;7.63;6.50;;;;;;;;;;5102568;28;20047;-83
2021/09/07 10:47:05;;;;;;;10.45;6.65;;;;;;;;;;5102572;28;20488;-83
2021/09/07 10:49:47;;;;;;;10.52;6.28;;;;;;;;;;5102399;28;20126;-82
2021/09/07 10:52:19;;;;;;;9.45;7.07;;;;;;;;;;5103562;28;20368;-81
2021/09/07 10:54:48;;;;;;;9.45;7.32;;;;;;;;;;5103990;28;20066;-82
2021/09/07 10:57:45;;;;;;;10.88;6.85;;;;;;;;;;5103039;28;20075;-82
2021/09/07 11:00:39;;;;;;;8.52;6.80;;;;;;;;;;5103109;28;20036;-83
2021/09/07 11:03:09;;;;;;;8.88;6.90;;;;;;;;;;5103236;28;20044;-84
2021/09/07 11:05:40;;;;;;;7.93;6.40;;;;;;;;;;5104266;28;20048;-85
2021/09/07 11:08:08;;;;;;;9.63;6.60;;;;;;;;;;5104616;28;20101;-85
2021/09/07 11:10:36;;;;;;;8.48;6.55;;;;;;;;;;5103017;28;20044;-84
2021/09/07 11:13:04;;;;;;;7.40;5.80;;;;;;;;;;5102795;28;20040;-83
2021/09/07 11:15:33;;;;;;;8.80;6.63;;;;;;;;;;5083610;28;20048;-84
2021/09/07 11:18:03;;;;;;;10.18;6.07;;;;;;;;;;5083624;28;20036;-82
2021/09/07 11:20:34;;;;;;;8.68;5.90;;;;;;;;;;5101097;28;20040;-84
2021/09/07 11:23:09;;;;;;;9.40;5.95;;;;;;;;;;5102266;28;20051;-83
2021/09/07 11:25:36;;;;;;;7.05;5.65;;;;;;;;;;5102054;28;20044;-82
2021/09/07 11:28:05;;;;;;;10.57;6.30;;;;;;;;;;5101349;28;20046;-83
2021/09/07 11:30:33;;;;;;;8.45;5.95;;;;;;;;;;5101554;28;20051;-84
2021/09/07 11:33:02;;;;;;;8.93;6.20;;;;;;;;;;5101374;28;20055;-83
2021/09/07 11:35:32;;;;;;;7.20;5.57;;;;;;;;;;5101028;28;20487;-83
2021/09/07 11:38:00;;;;;;;9.48;6.05;;;;;;;;;;5101281;28;20047;-83
2021/09/07 11:40:28;;;;;;;7.20;5.80;;;;;;;;;;5101247;28;20040;-86
2021/09/07 11:42:54;;;;;;;7.82;6.13;;;;;;;;;;5101354;28;20048;-84
2021/09/07 11:45:26;;;;;;;9.00;6.22;;;;;;;;;;5117033;28;20048;-83
2021/09/07 11:47:53;;;;;;;7.70;5.95;;;;;;;;;;5101048;28;20036;-83
2021/09/07 11:50:21;;;;;;;7.80;5.82;;;;;;;;;;5101404;28;20036;-82
2021/09/07 11:52:50;;;;;;;7.60;6.00;;;;;;;;;;5100578;28;20119;-83
2021/09/07 11:55:44;;;;;;;7.55;5.30;;;;;;;;;;5100524;28;20047;-83
2021/09/07 11:58:23;;;;;;;7.40;5.60;;;;;;;;;;5100997;28;20116;-83
2021/09/07 12:01:01;;;;;;;6.93;5.63;;;;;;;;;;5101453;28;20099;-84
2021/09/07 12:03:39;;;;;;;6.90;5.47;;;;;;;;;;5101947;28;20044;-83
2021/09/07 12:06:11;;;;;;;7.10;6.00;;;;;;;;;;5102769;28;20099;-83
2021/09/07 12:08:42;;;;;;;8.05;6.07;;;;;;;;;;5101755;28;20036;-83
2021/09/07 12:11:12;;;;;;;8.18;5.72;;;;;;;;;;5101645;28;20491;-84
2021/09/07 12:13:38;;;;;;;7.85;6.07;;;;;;;;;;5100694;28;20070;-83
2021/09/07 12:16:06;;;;;;;6.53;5.47;;;;;;;;;;5101377;28;20040;-83
2021/09/07 12:18:40;;;;;;;7.90;5.78;;;;;;;;;;5121601;28;20036;-82
2021/09/07 12:21:12;;;;;;;8.70;5.82;;;;;;;;;;5107917;28;20052;-84
2021/09/07 12:23:42;;;;;;;8.90;5.80;;;;;;;;;;5101227;28;20050;-81
2021/09/07 12:26:10;;;;;;;8.35;6.13;;;;;;;;;;5099353;28;20097;-83
2021/09/07 12:28:39;;;;;;;7.78;5.97;;;;;;;;;;5098979;28;20062;-83
2021/09/07 12:31:13;;;;;;;8.05;5.65;;;;;;;;;;5099209;28;20139;-83
2021/09/07 12:33:41;;;;;;;7.43;5.68;;;;;;;;;;5100143;28;20036;-84
2021/09/07 12:36:08;;;;;;;7.65;5.50;;;;;;;;;;5080913;28;20040;-83
2021/09/07 12:38:34;;;;;;;8.70;5.72;;;;;;;;;;5098509;28;20074;-84
2021/09/07 12:41:05;;;;;;;8.48;6.10;;;;;;;;;;5097259;28;20484;-83
2021/09/07 12:43:33;;;;;;;7.93;5.53;;;;;;;;;;5099271;28;20127;-83
2021/09/07 12:46:01;;;;;;;7.75;5.43;;;;;;;;;;5099788;28;20396;-83
2021/09/07 12:48:29;;;;;;;7.57;5.63;;;;;;;;;;5101646;28;20103;-82
2021/09/07 12:50:57;;;;;;;11.23;5.72;;;;;;;;;;5106552;28;20123;-84
2021/09/07 12:53:26;;;;;;;7.57;5.63;;;;;;;;;;5103304;28;20040;-82
2021/09/07 12:55:54;;;;;;;7.35;5.90;;;;;;;;;;5114624;28;20058;-81
2021/09/07 12:58:23;;;;;;;8.15;5.88;;;;;;;;;;5100592;28;20126;-81
2021/09/07 13:00:49;;;;;;;9.88;5.22;;;;;;;;;;5099946;28;20055;-82
2021/09/07 13:03:16;;;;;;;14.35;6.50;;;;;;;;;;5081855;28;20044;-82
2021/09/07 13:05:44;;;;;;;7.30;5.70;;;;;;;;;;5093530;28;20041;-83
2021/09/07 13:08:11;;;;;;;8.93;6.55;;;;;;;;;;5097455;28;20089;-83
2021/09/07 13:10:37;;;;;;;27.77;6.95;;;;;;;;;;5098042;28;20040;-83
2021/09/07 13:13:04;;;;;;;7.88;6.30;;;;;;;;;;5098803;28;20044;-82
2021/09/07 13:15:32;;;;;;;8.52;6.20;;;;;;;;;;5080632;28;20078;-81
2021/09/07 13:18:02;;;;;;;9.27;6.00;;;;;;;;;;5097965;28;20048;-83
2021/09/07 13:20:33;;;;;;;7.95;5.82;;;;;;;;;;5097803;28;20048;-84
2021/09/07 13:23:00;;;;;;;10.32;6.15;;;;;;;;;;5097388;28;20070;-83
2021/09/07 13:25:29;;;;;;;8.73;6.25;;;;;;;;;;5096861;28;20113;-83
2021/09/07 13:27:56;;;;;;;9.98;6.05;;;;;;;;;;5097441;28;20468;-83
2021/09/07 13:30:23;;;;;;;6.93;5.25;;;;;;;;;;5080799;28;20047;-83
2021/09/07 13:32:51;;;;;;;7.47;5.25;;;;;;;;;;5083638;28;20039;-83
2021/09/07 13:35:19;;;;;;;7.45;5.82;;;;;;;;;;5100745;28;20153;-83
2021/09/07 13:37:45;;;;;;;6.53;5.55;;;;;;;;;;5100842;28;20059;-83
2021/09/07 13:40:12;;;;;;;8.60;5.90;;;;;;;;;;5104150;28;20040;-83
2021/09/07 13:42:39;;;;;;;8.13;6.03;;;;;;;;;;5083964;28;20055;-85
2021/09/07 13:45:06;;;;;;;9.18;6.22;;;;;;;;;;5101867;28;20043;-83
2021/09/07 13:47:34;;;;;;;7.78;5.95;;;;;;;;;;5102527;28;20055;-85
2021/09/07 13:50:02;;;;;;;7.63;5.75;;;;;;;;;;5087336;28;20050;-85
2021/09/07 13:52:29;;;;;;;8.07;6.13;;;;;;;;;;5103412;28;20169;-83
2021/09/07 13:54:55;;;;;;;9.98;6.13;;;;;;;;;;5090792;28;20465;-83
2021/09/07 13:57:24;;;;;;;8.57;5.70;;;;;;;;;;5070837;28;20055;-82
2021/09/07 13:59:50;;;;;;;8.25;6.22;;;;;;;;;;5063438;28;20121;-84
2021/09/07 14:02:17;;;;;;;8.57;5.43;;;;;;;;;;5062357;28;20408;-83
2021/09/07 14:04:43;;;;;;;9.05;6.03;;;;;;;;;;5097330;28;20043;-84
2021/09/07 14:07:11;;;;;;;6.90;5.32;;;;;;;;;;5101094;28;20046;-83
2021/09/07 14:09:37;;;;;;;9.77;5.70;;;;;;;;;;5100396;28;20044;-83
2021/09/07 14:12:04;;;;;;;7.82;5.85;;;;;;;;;;5100664;28;20044;-84
2021/09/07 14:14:31;;;;;;;8.10;5.47;;;;;;;;;;5100462;28;20042;-84
2021/09/07 14:16:57;;;;;;;7.13;4.88;;;;;;;;;;5100521;28;20040;-82
2021/09/07 14:19:24;;;;;;;6.82;5.10;;;;;;;;;;5100077;28;20507;-84
2021/09/07 14:21:51;;;;;;;9.52;5.75;;;;;;;;;;5101321;28;20047;-83
2021/09/07 14:24:19;;;;;;;6.32;4.65;;;;;;;;;;5100549;28;20051;-84
2021/09/07 14:26:45;;;;;;;6.90;5.28;;;;;;;;;;5100448;28;20044;-82
2021/09/07 14:29:12;;;;;;;8.88;5.47;;;;;;;;;;5101000;28;20504;-82
2021/09/07 14:31:38;;;;;;;8.13;5.53;;;;;;;;;;5100170;28;20055;-83
2021/09/07 14:34:05;;;;;;;8.73;5.70;;;;;;;;;;5071954;28;20374;-84
2021/09/07 14:36:32;;;;;;;6.72;5.40;;;;;;;;;;5081019;28;20067;-83
2021/09/07 14:38:58;;;;;;;8.00;5.93;;;;;;;;;;5080227;28;20503;-83
2021/09/07 14:41:26;;;;;;;7.80;5.70;;;;;;;;;;5073628;28;20380;-84
2021/09/07 14:43:52;;;;;;;9.80;5.60;;;;;;;;;;5101379;28;20044;-83
2021/09/07 14:46:19;;;;;;;9.93;5.63;;;;;;;;;;5085795;28;20040;-83
2021/09/07 14:48:46;;;;;;;7.63;5.55;;;;;;;;;;5099711;28;20460;-83